Time;durP1;ratioP1;P1;durP2;ratioP2;P2;SDS_P1;SDS_P2;PMS_P1;PMS_P2;Temp;Humidity;BMP_temperature;BMP_pressure;BME280_temperature;BME280_humidity;BME280_pressure;Samples;Min_cycle;Max_cycle;Signal;HPM_P1;HPM_P2
2024/02/02 00:02:05;;;;;;;;;14.50;12.75;;;;;3.18;51.97;101682.19;146602;638;47916;-69
2024/02/02 00:05:10;;;;;;;;;14.25;13.00;;;;;3.17;53.22;101685.50;146602;572;46016;-69
2024/02/02 00:08:07;;;;;;;;;12.25;11.00;;;;;3.14;52.52;101686.84;146603;612;47020;-69
2024/02/02 00:11:04;;;;;;;;;17.25;12.50;;;;;3.04;52.76;101673.94;146603;583;45016;-70
2024/02/02 00:14:00;;;;;;;;;11.75;8.25;;;;;3.08;53.05;101681.13;146607;569;46011;-68
2024/02/02 00:17:02;;;;;;;;;13.00;12.00;;;;;3.04;52.75;101685.06;146601;618;47016;-69
2024/02/02 00:20:01;;;;;;;;;11.50;9.00;;;;;3.01;53.44;101682.22;146593;563;47915;-65
2024/02/02 00:22:54;;;;;;;;;11.25;9.00;;;;;2.95;53.21;101679.97;146602;602;46016;-68
2024/02/02 00:25:51;;;;;;;;;12.75;11.75;;;;;2.89;53.22;101683.59;146608;566;46012;-68
2024/02/02 00:28:50;;;;;;;;;11.50;11.00;;;;;2.87;53.71;101673.22;146603;606;47016;-70
2024/02/02 00:31:57;;;;;;;;;11.25;10.75;;;;;2.89;53.30;101673.34;146610;637;45021;-69
2024/02/02 00:35:18;;;;;;;;;12.00;12.00;;;;;2.94;52.69;101674.69;146605;570;47012;-66
2024/02/02 00:38:15;;;;;;;;;9.25;9.25;;;;;2.96;53.25;101668.97;146599;608;47012;-67
2024/02/02 00:41:15;;;;;;;;;7.00;7.00;;;;;2.97;52.94;101667.31;146603;566;47016;-66
2024/02/02 00:44:11;;;;;;;;;14.75;11.50;;;;;2.96;53.04;101668.97;146605;582;47010;-67
2024/02/02 00:47:05;;;;;;;;;12.50;9.00;;;;;2.95;53.10;101663.69;146611;576;47012;-68
2024/02/02 00:50:02;;;;;;;;;9.25;8.50;;;;;2.95;53.11;101671.38;146630;581;45020;-66
2024/02/02 00:52:57;;;;;;;;;14.00;9.25;;;;;2.96;53.04;101671.53;146624;633;45024;-68
2024/02/02 00:55:56;;;;;;;;;18.75;15.50;;;;;2.97;52.90;101659.63;146618;578;46918;-66
2024/02/02 00:59:03;;;;;;;;;11.75;10.50;;;;;-0.09;52.29;101120.34;146626;572;45913;-69
2024/02/02 01:02:09;;;;;;;;;11.25;7.75;;;;;2.97;53.86;101668.22;146627;566;45010;-67
2024/02/02 01:05:14;;;;;;;;;8.25;7.50;;;;;2.91;53.38;101671.84;146626;629;45016;-69
2024/02/02 01:08:25;;;;;;;;;12.50;10.25;;;;;2.81;53.44;101674.28;146625;632;45021;-68
2024/02/02 01:11:26;;;;;;;;;17.00;16.75;;;;;2.73;53.80;101676.97;146626;676;45913;-68
2024/02/02 01:14:26;;;;;;;;;10.75;10.00;;;;;2.63;54.60;101668.25;146627;572;46010;-69
2024/02/02 01:17:18;;;;;;;;;12.25;11.50;;;;;2.50;54.64;101666.16;146629;622;45016;-68
2024/02/02 01:20:35;;;;;;;;;;;;;;;;;;;;;
2024/02/02 01:23:39;;;;;;;;;18.75;15.25;;;;;2.31;55.62;101671.13;146625;582;46010;-67
2024/02/02 01:26:35;;;;;;;;;22.25;19.00;;;;;2.13;55.69;101644.59;146627;604;45012;-68
2024/02/02 01:29:42;;;;;;;;;22.25;16.50;;;;;2.17;56.38;101664.63;146629;571;44477;-68
2024/02/02 01:32:41;;;;;;;;;19.75;18.25;;;;;2.10;57.26;101661.31;146628;581;45010;-68
2024/02/02 01:35:37;;;;;;;;;25.50;23.75;;;;;2.05;56.76;101660.84;146629;573;45010;-68
2024/02/02 01:38:40;;;;;;;;;21.75;17.50;;;;;-0.64;55.64;101203.03;146625;578;46010;-68
2024/02/02 01:41:38;;;;;;;;;24.75;21.50;;;;;1.97;57.46;101661.75;146625;732;45915;-68
2024/02/02 01:44:37;;;;;;;;;20.75;19.25;;;;;1.89;57.91;101658.41;146630;583;45021;-68
2024/02/02 01:47:35;;;;;;;;;21.00;19.25;;;;;1.80;58.89;101655.81;146604;577;46016;-69
2024/02/02 01:50:37;;;;;;;;;20.00;15.75;;;;;1.79;57.94;101651.47;146605;595;46030;-68
2024/02/02 01:53:34;;;;;;;;;21.00;16.00;;;;;1.85;57.96;101646.06;146602;598;46017;-69
2024/02/02 01:56:29;;;;;;;;;21.25;18.75;;;;;1.90;57.14;101657.69;146605;604;46020;-69
2024/02/02 01:59:27;;;;;;;;;23.25;17.75;;;;;1.94;57.42;101646.09;146604;631;46016;-69
2024/02/02 02:02:31;;;;;;;;;17.00;15.00;;;;;1.98;56.91;101637.97;146606;626;46020;-68
2024/02/02 02:05:36;;;;;;;;;16.25;14.00;;;;;1.97;57.05;101633.59;146605;614;47010;-68
2024/02/02 02:08:48;;;;;;;;;11.75;10.75;;;;;1.99;55.90;101684.16;146604;608;46012;-68
2024/02/02 02:11:44;;;;;;;;;15.00;14.75;;;;;2.04;55.84;101639.47;146604;593;47012;-72
2024/02/02 02:14:43;;;;;;;;;15.00;12.25;;;;;2.08;56.22;101639.00;146605;570;46010;-70
2024/02/02 02:17:39;;;;;;;;;12.25;11.25;;;;;2.12;55.91;101644.44;146605;590;46016;-69
2024/02/02 02:20:36;;;;;;;;;15.50;13.00;;;;;2.13;55.78;101636.94;146608;579;46020;-66
2024/02/02 02:23:43;;;;;;;;;14.75;11.75;;;;;2.14;55.25;101646.41;146600;597;47016;-66
2024/02/02 02:26:45;;;;;;;;;15.00;12.25;;;;;2.06;56.29;101643.09;146607;569;46020;-68
2024/02/02 02:29:41;;;;;;;;;15.50;14.00;;;;;2.00;56.34;101639.94;146605;663;47012;-68
2024/02/02 02:32:39;;;;;;;;;21.50;19.00;;;;;1.94;56.43;101644.44;146603;569;47020;-68
2024/02/02 02:35:38;;;;;;;;;22.75;21.75;;;;;1.86;56.72;101647.88;146604;570;46046;-68
2024/02/02 02:38:39;;;;;;;;;26.75;17.50;;;;;1.83;56.98;101645.00;146607;606;46020;-68
2024/02/02 02:41:33;;;;;;;;;18.25;13.25;;;;;1.79;56.84;101643.78;146603;569;47012;-69
2024/02/02 02:44:30;;;;;;;;;18.50;15.75;;;;;1.74;57.81;101650.09;146605;575;46029;-68
2024/02/02 02:47:41;;;;;;;;;18.75;16.00;;;;;1.76;57.40;101638.38;146606;624;46012;-68
2024/02/02 02:50:38;;;;;;;;;14.75;14.25;;;;;1.75;59.05;101635.69;146603;576;46021;-68
2024/02/02 02:53:51;;;;;;;;;19.00;16.50;;;;;1.71;58.25;101643.75;146605;569;46016;-68
2024/02/02 02:56:44;;;;;;;;;13.00;13.00;;;;;1.66;58.70;101635.66;146607;591;46020;-67
2024/02/02 02:59:36;;;;;;;;;10.75;10.75;;;;;1.65;58.30;101638.94;146603;602;46016;-68
2024/02/02 03:02:39;;;;;;;;;14.50;12.00;;;;;1.63;56.93;101635.34;146607;577;46020;-67
2024/02/02 03:05:44;;;;;;;;;17.00;13.25;;;;;1.64;57.77;101636.22;146600;571;47017;-67
2024/02/02 03:08:46;;;;;;;;;10.00;9.00;;;;;1.65;57.87;101648.25;146604;591;47010;-68
2024/02/02 03:12:03;;;;;;;;;13.25;11.00;;;;;1.69;57.83;101642.72;146602;643;46016;-68
2024/02/02 03:15:11;;;;;;;;;17.25;12.00;;;;;1.69;57.86;101643.63;146607;646;46021;-68
2024/02/02 03:18:08;;;;;;;;;13.25;12.50;;;;;1.67;58.87;101642.56;146605;612;46016;-69
2024/02/02 03:21:01;;;;;;;;;17.00;14.50;;;;;0.28;58.06;101412.22;146604;699;47010;-71
2024/02/02 03:24:02;;;;;;;;;13.25;12.50;;;;;1.58;58.54;101641.62;146602;572;47014;-67
2024/02/02 03:26:55;;;;;;;;;14.25;12.50;;;;;1.44;58.30;101632.56;146604;577;46010;-68
2024/02/02 03:29:57;;;;;;;;;20.00;16.75;;;;;1.46;57.75;101641.28;146605;583;46013;-67
2024/02/02 03:32:56;;;;;;;;;17.00;16.00;;;;;1.39;58.75;101634.63;146609;613;46010;-68
2024/02/02 03:35:48;;;;;;;;;26.25;23.25;;;;;1.46;57.83;101645.47;146604;584;46016;-66
2024/02/02 03:38:54;;;;;;;;;14.75;13.75;;;;;1.47;57.86;101645.66;146607;632;46012;-67
2024/02/02 03:42:04;;;;;;;;;19.75;18.75;;;;;1.51;58.50;101645.22;146605;569;46016;-66
2024/02/02 03:45:06;;;;;;;;;14.25;12.75;;;;;1.53;58.65;101640.28;146605;580;46021;-67
2024/02/02 03:48:05;;;;;;;;;22.25;18.75;;;;;1.51;58.11;101644.31;146623;569;45911;-66
2024/02/02 03:51:00;;;;;;;;;20.00;17.25;;;;;1.51;58.55;101645.22;146622;588;46012;-66
2024/02/02 03:53:56;;;;;;;;;19.75;16.25;;;;;1.51;59.72;101640.09;146624;592;46012;-65
2024/02/02 03:56:52;;;;;;;;;15.50;15.50;;;;;1.52;59.00;101638.44;146623;633;46020;-67
2024/02/02 03:59:51;;;;;;;;;19.00;17.25;;;;;1.50;59.78;101637.41;146625;573;45914;-67
2024/02/02 04:02:52;;;;;;;;;25.50;20.00;;;;;1.46;59.97;101641.28;146628;585;46010;-67
2024/02/02 04:05:51;;;;;;;;;31.50;26.00;;;;;1.46;59.07;101648.94;146624;583;46013;-68
2024/02/02 04:08:49;;;;;;;;;22.00;20.50;;;;;1.46;59.23;101646.38;146626;703;45020;-66
2024/02/02 04:11:47;;;;;;;;;31.25;25.50;;;;;1.43;59.14;101640.06;146621;566;45913;-66
2024/02/02 04:14:43;;;;;;;;;21.75;19.75;;;;;1.51;60.94;101654.53;146627;564;45029;-66
2024/02/02 04:17:49;;;;;;;;;28.50;24.75;;;;;1.50;60.34;101657.84;146623;584;46010;-69
2024/02/02 04:20:41;;;;;;;;;23.25;20.00;;;;;1.49;60.11;101650.91;146625;566;46010;-68
2024/02/02 04:23:36;;;;;;;;;27.50;23.25;;;;;1.49;60.41;101651.81;146625;619;45016;-67
2024/02/02 04:26:34;;;;;;;;;42.00;34.50;;;;;1.50;61.02;101661.31;146621;630;46914;-69
2024/02/02 04:29:35;;;;;;;;;36.00;29.25;;;;;1.51;60.20;101658.00;146624;703;46017;-69
2024/02/02 04:32:28;;;;;;;;;29.50;24.00;;;;;1.55;60.13;101656.66;146626;701;46010;-68
2024/02/02 04:35:23;;;;;;;;;35.50;32.25;;;;;1.57;60.70;101655.16;146625;578;46013;-69
2024/02/02 04:38:28;;;;;;;;;43.50;34.00;;;;;1.57;61.04;101660.28;146626;608;46010;-67
2024/02/02 04:41:25;;;;;;;;;38.75;31.00;;;;;1.53;61.70;101655.59;146627;594;45914;-67
2024/02/02 04:44:20;;;;;;;;;42.00;34.50;;;;;1.52;61.07;101664.00;146630;704;45010;-68
2024/02/02 04:47:23;;;;;;;;;37.75;33.50;;;;;1.55;61.89;101660.09;146609;686;46035;-68
2024/02/02 04:50:28;;;;;;;;;41.50;35.00;;;;;1.58;62.40;101659.50;146607;629;46011;-67
2024/02/02 04:53:26;;;;;;;;;41.00;35.25;;;;;1.60;62.56;101660.59;146605;663;46913;-69
2024/02/02 04:56:37;;;;;;;;;42.50;34.50;;;;;1.60;61.87;101664.03;146608;570;46020;-68
2024/02/02 04:59:48;;;;;;;;;41.50;37.00;;;;;1.64;62.16;101666.91;146602;579;46016;-65
2024/02/02 05:02:46;;;;;;;;;47.00;35.50;;;;;1.66;62.18;101663.75;146606;625;46020;-66
2024/02/02 05:05:46;;;;;;;;;40.75;37.50;;;;;1.63;62.82;101660.91;146604;572;46014;-65
2024/02/02 05:08:53;;;;;;;;;35.25;33.50;;;;;1.62;61.15;101677.91;146604;598;46020;-67
2024/02/02 05:11:53;;;;;;;;;47.25;37.75;;;;;1.64;61.91;101677.13;146604;587;46016;-66
2024/02/02 05:14:45;;;;;;;;;50.25;39.00;;;;;1.70;61.85;101675.19;146606;569;46010;-66
2024/02/02 05:17:52;;;;;;;;;46.50;39.75;;;;;1.75;61.08;101677.47;146604;565;46914;-66
2024/02/02 05:20:53;;;;;;;;;52.50;39.00;;;;;1.86;62.42;101683.66;146606;618;46010;-66
2024/02/02 05:23:56;;;;;;;;;52.75;41.75;;;;;1.93;62.20;101687.75;146603;683;46016;-66
2024/02/02 05:26:56;;;;;;;;;49.25;40.25;;;;;1.99;62.61;101685.81;146607;639;46020;-67
2024/02/02 05:29:48;;;;;;;;;57.50;43.50;;;;;2.03;62.72;101691.41;146605;630;47016;-69
2024/02/02 05:32:41;;;;;;;;;49.25;39.00;;;;;2.05;62.89;101697.56;146605;721;47010;-70
2024/02/02 05:35:41;;;;;;;;;50.75;38.25;;;;;2.07;63.38;101692.59;146602;569;47016;-65
2024/02/02 05:38:37;;;;;;;;;51.50;41.00;;;;;2.04;61.87;101698.31;146604;787;46010;-66
2024/02/02 05:41:47;;;;;;;;;44.50;37.25;;;;;2.04;63.38;101705.09;146603;566;46918;-68
2024/02/02 05:45:00;;;;;;;;;40.25;33.00;;;;;2.05;61.35;101706.88;146606;565;46020;-69
2024/02/02 05:47:56;;;;;;;;;58.50;44.25;;;;;2.12;61.60;101711.87;146617;662;47030;-68
2024/02/02 05:50:58;;;;;;;;;43.00;36.50;;;;;2.18;61.26;101711.56;146627;612;45024;-68
2024/02/02 05:54:03;;;;;;;;;;;;;;;;;;;;;
2024/02/02 05:57:06;;;;;;;;;49.50;41.75;;;;;2.26;60.84;101714.16;146629;569;46010;-69
2024/02/02 05:59:58;;;;;;;;;41.75;36.75;;;;;2.33;61.35;101719.88;146624;569;45016;-72
2024/02/02 06:03:00;;;;;;;;;57.25;43.25;;;;;2.35;61.55;101726.06;146627;590;45020;-71
2024/02/02 06:05:57;;;;;;;;;43.25;36.00;;;;;2.38;60.91;101729.84;146626;587;45017;-71
2024/02/02 06:08:53;;;;;;;;;55.75;44.75;;;;;2.46;60.79;101736.62;146627;571;46010;-69
2024/02/02 06:11:57;;;;;;;;;61.75;47.50;;;;;2.77;61.47;101730.31;146626;624;46017;-68
2024/02/02 06:14:51;;;;;;;;;55.25;43.25;;;;;3.77;61.67;101731.28;146624;591;46010;-68
2024/02/02 06:18:11;;;;;;;;;55.50;42.00;;;;;4.89;57.09;101739.97;146625;625;45012;-69
2024/02/02 06:21:03;;;;;;;;;56.50;45.00;;;;;6.03;54.08;101743.09;146624;595;46010;-65
2024/02/02 06:24:04;;;;;;;;;60.00;45.50;;;;;7.03;51.77;101734.28;146626;631;45016;-67
2024/02/02 06:27:07;;;;;;;;;208.00;147.50;;;;;8.03;51.50;101739.63;146631;564;45020;-68
2024/02/02 06:30:12;;;;;;;;;154.00;113.75;;;;;9.16;49.28;101736.97;146634;654;45912;-68
2024/02/02 06:33:04;;;;;;;;;265.50;191.25;;;;;10.30;47.18;101732.94;146635;611;46010;-68
2024/02/02 06:36:07;;;;;;;;;65.00;50.50;;;;;11.20;43.66;101730.28;146627;587;46017;-68
2024/02/02 06:39:23;;;;;;;;;53.75;43.75;;;;;11.80;43.07;101738.44;146626;611;45010;-68
2024/02/02 06:42:32;;;;;;;;;51.75;40.50;;;;;12.29;42.02;101729.31;146624;596;46014;-67
2024/02/02 06:45:28;;;;;;;;;52.25;41.50;;;;;12.63;41.09;101735.72;146626;579;45020;-68
2024/02/02 06:48:36;;;;;;;;;47.50;39.50;;;;;12.98;40.44;101726.44;146602;607;46017;-67
2024/02/02 06:51:29;;;;;;;;;62.00;47.75;;;;;13.27;38.84;101732.44;146604;739;47021;-69
2024/02/02 06:54:23;;;;;;;;;44.25;37.50;;;;;13.41;38.16;101739.34;146601;656;47015;-69
2024/02/02 06:57:21;;;;;;;;;46.25;36.00;;;;;13.53;38.75;101747.84;146607;564;46020;-68
2024/02/02 07:00:34;;;;;;;;;48.50;37.50;;;;;13.66;39.76;101741.59;146600;655;47016;-68
2024/02/02 07:03:36;;;;;;;;;52.00;41.25;;;;;13.91;38.07;101743.81;146604;566;47020;-68
2024/02/02 07:06:31;;;;;;;;;48.00;38.25;;;;;14.02;36.10;101747.03;146603;583;47014;-67
2024/02/02 07:09:53;;;;;;;;;;;;;;;;;;;;;
2024/02/02 07:13:07;;;;;;;;;49.25;41.00;;;;;13.76;37.58;101754.31;146605;582;46012;-66
2024/02/02 07:16:11;;;;;;;;;59.25;44.00;;;;;13.36;36.83;101754.72;146606;601;46013;-66
2024/02/02 07:19:05;;;;;;;;;53.50;41.50;;;;;12.85;36.74;101763.88;146602;619;46916;-68
2024/02/02 07:22:06;;;;;;;;;61.00;45.50;;;;;11.14;37.26;101548.19;146607;611;46010;-68
2024/02/02 07:25:15;;;;;;;;;49.50;39.75;;;;;11.74;38.31;101761.47;146603;570;47012;-67
2024/02/02 07:28:35;;;;;;;;;46.50;39.00;;;;;11.22;40.16;101770.22;146607;574;46020;-67
2024/02/02 07:31:53;;;;;;;;;44.75;36.25;;;;;10.81;40.06;101763.16;146600;570;47017;-68
2024/02/02 07:34:51;;;;;;;;;47.25;38.50;;;;;10.54;40.98;101764.84;146603;595;47010;-68
2024/02/02 07:38:13;;;;;;;;;48.00;39.00;;;;;10.48;42.17;101764.41;146605;564;46016;-68
2024/02/02 07:41:12;;;;;;;;;48.25;38.75;;;;;10.49;41.85;101767.09;146604;552;46031;-70
2024/02/02 07:44:39;;;;;;;;;46.00;37.00;;;;;7.87;43.09;101308.91;146603;598;46014;-70
2024/02/02 07:47:46;;;;;;;;;40.50;33.25;;;;;10.67;41.83;101769.16;146606;602;47010;-70
2024/02/02 07:50:42;;;;;;;;;43.50;34.75;;;;;10.73;41.86;101766.97;146605;646;46016;-68
2024/02/02 07:53:34;;;;;;;;;41.75;34.50;;;;;10.77;41.78;101756.88;146605;604;46021;-70
2024/02/02 07:56:41;;;;;;;;;46.75;37.25;;;;;10.75;42.08;101752.41;146605;606;46012;-68
2024/02/02 07:59:36;;;;;;;;;49.25;37.25;;;;;10.70;41.60;101757.28;146604;759;47020;-67
2024/02/02 08:02:34;;;;;;;;;45.50;34.75;;;;;9.57;41.23;101586.28;146602;612;46017;-69
2024/02/02 08:05:31;;;;;;;;;41.00;34.00;;;;;10.53;41.44;101761.34;146602;605;46020;-66
2024/02/02 08:08:25;;;;;;;;;43.00;33.00;;;;;10.46;42.57;101766.00;146603;630;46016;-67
2024/02/02 08:11:25;;;;;;;;;42.75;35.75;;;;;10.39;42.59;101757.78;146605;645;46020;-67
2024/02/02 08:14:19;;;;;;;;;43.25;36.00;;;;;10.39;42.57;101764.69;146604;598;47014;-67
2024/02/02 08:17:19;;;;;;;;;52.25;44.00;;;;;9.99;42.27;101697.09;146604;593;46012;-67
2024/02/02 08:20:20;;;;;;;;;62.25;48.50;;;;;10.33;42.07;101765.16;146605;581;46024;-68
2024/02/02 08:23:17;;;;;;;;;56.50;44.75;;;;;10.29;42.68;101764.84;146605;566;46020;-67
2024/02/02 08:26:16;;;;;;;;;45.00;36.50;;;;;10.39;43.59;101769.88;146603;640;46016;-67
2024/02/02 08:29:09;;;;;;;;;49.75;37.75;;;;;10.55;42.42;101764.91;146607;599;46010;-68
2024/02/02 08:32:05;;;;;;;;;51.25;42.00;;;;;10.68;42.68;101764.06;146603;612;47014;-68
2024/02/02 08:35:09;;;;;;;;;45.75;36.50;;;;;10.79;43.25;101767.38;146605;625;46010;-67
2024/02/02 08:38:05;;;;;;;;;43.75;34.00;;;;;10.88;42.26;101757.62;146604;580;47013;-69
2024/02/02 08:40:58;;;;;;;;;41.00;33.75;;;;;10.90;42.17;101762.91;146600;566;47010;-68
2024/02/02 08:43:59;;;;;;;;;46.50;36.50;;;;;10.91;42.80;101767.31;146603;609;46012;-67
2024/02/02 08:46:57;;;;;;;;;43.75;35.25;;;;;10.94;41.14;101754.53;146603;611;48019;-68
2024/02/02 08:50:08;;;;;;;;;37.00;32.50;;;;;10.92;42.05;101756.13;146601;586;46016;-69
2024/02/02 08:53:05;;;;;;;;;37.75;32.00;;;;;10.89;41.56;101756.81;146606;578;46030;-68
2024/02/02 08:56:06;;;;;;;;;39.75;34.00;;;;;10.94;42.30;101759.72;146604;565;46012;-68
2024/02/02 08:59:02;;;;;;;;;38.00;31.75;;;;;11.11;41.74;101756.53;146606;565;46020;-68
2024/02/02 09:01:55;;;;;;;;;36.75;29.25;;;;;11.23;40.23;101765.13;146601;616;46017;-68
2024/02/02 09:05:23;;;;;;;;;39.75;32.25;;;;;11.24;42.36;101751.31;146605;571;46020;-69
2024/02/02 09:08:45;;;;;;;;;33.25;31.25;;;;;11.31;41.40;101757.84;146601;680;47910;-68
2024/02/02 09:11:40;;;;;;;;;38.00;33.00;;;;;11.35;40.15;101758.94;146604;606;47010;-69
2024/02/02 09:14:35;;;;;;;;;35.75;30.00;;;;;11.37;40.16;101745.25;146604;671;46012;-68
2024/02/02 09:17:35;;;;;;;;;35.00;30.00;;;;;11.38;39.89;101747.03;146610;662;45021;-69
2024/02/02 09:20:49;;;;;;;;;33.25;30.00;;;;;11.33;41.84;101736.34;146603;565;47927;-68
2024/02/02 09:23:49;;;;;;;;;41.50;33.00;;;;;11.36;41.32;101750.34;146608;613;46020;-68
2024/02/02 09:26:55;;;;;;;;;43.00;34.75;;;;;11.48;41.36;101752.00;146601;569;46016;-67
2024/02/02 09:29:51;;;;;;;;;41.00;33.00;;;;;11.66;41.10;101752.28;146604;575;47010;-67
2024/02/02 09:32:47;;;;;;;;;31.75;22.50;;;;;11.79;39.33;101735.78;146601;782;47012;-69
2024/02/02 09:35:59;;;;;;;;;37.50;33.00;;;;;11.97;41.46;101736.94;146606;580;47010;-68
2024/02/02 09:39:12;;;;;;;;;37.75;31.50;;;;;12.09;39.54;101738.50;146599;682;48912;-69
2024/02/02 09:48:18;;;;;;;;;28.00;23.25;;;;;11.96;41.08;101732.56;146623;573;46010;-69
2024/02/02 09:51:54;;;;;;;;;37.75;30.25;;;;;11.95;41.11;101738.53;146624;564;46034;-69
2024/02/02 09:55:55;;;;;;;;;39.00;33.00;;;;;12.07;41.54;101719.31;146625;570;46010;-69
2024/02/02 09:59:41;;;;;;;;;37.25;31.00;;;;;12.08;41.55;101693.41;146625;601;46012;-69
2024/02/02 10:03:36;;;;;;;;;36.25;32.25;;;;;12.01;41.17;101692.13;146625;593;46032;-71
2024/02/02 10:07:08;;;;;;;;;36.00;30.00;;;;;12.04;41.40;101701.81;146623;580;45912;-70
2024/02/02 10:11:04;;;;;;;;;33.00;29.25;;;;;10.95;41.01;101510.69;146625;683;46917;-70
2024/02/02 10:14:58;;;;;;;;;35.75;31.50;;;;;12.02;41.51;101690.41;146623;699;46012;-70
2024/02/02 10:18:39;;;;;;;;;34.75;29.25;;;;;11.92;41.69;101654.28;146625;589;45020;-70
2024/02/02 10:22:07;;;;;;;;;37.50;32.00;;;;;11.04;40.14;101500.00;146626;602;45017;-71
2024/02/02 10:25:44;;;;;;;;;33.25;30.75;;;;;12.14;40.80;101685.97;146627;705;46010;-70
2024/02/02 10:29:19;;;;;;;;;39.50;31.75;;;;;12.26;41.57;101683.22;146624;578;46012;-71
2024/02/02 10:33:02;;;;;;;;;40.25;32.25;;;;;12.51;42.44;101684.66;146625;565;45020;-69
2024/02/02 10:36:24;;;;;;;;;37.50;32.50;;;;;12.87;41.92;101670.28;146617;795;47912;-70
2024/02/02 10:39:54;;;;;;;;;32.50;27.75;;;;;13.00;42.47;101636.31;146630;667;45010;-70
2024/02/02 10:43:37;;;;;;;;;;;;;;;;;;;;;
2024/02/02 10:47:16;;;;;;;;;13.75;13.75;;;;;13.44;41.48;101610.97;146615;634;46020;-68
2024/02/02 10:50:46;;;;;;;;;24.25;22.75;;;;;13.97;40.88;101652.88;146604;578;46012;-69
2024/02/02 10:54:23;;;;;;;;;20.75;20.25;;;;;14.10;40.21;101664.84;146597;612;47011;-69
2024/02/02 10:57:44;;;;;;;;;18.75;18.25;;;;;14.22;40.98;101655.03;146604;570;47012;-70
2024/02/02 11:00:44;;;;;;;;;;;;;;;;;;;;;
2024/02/02 11:03:52;;;;;;;;;16.50;13.00;;;;;14.38;39.83;101658.44;146617;605;46016;-68
2024/02/02 11:07:23;;;;;;;;;18.25;16.50;;;;;14.43;40.74;101656.97;146622;590;46028;-67
2024/02/02 11:10:28;;;;;;;;;22.00;19.25;;;;;14.49;39.33;101647.72;146614;584;46016;-68
2024/02/02 11:13:53;;;;;;;;;19.75;15.75;;;;;14.55;40.28;101642.84;146619;575;47020;-68
2024/02/02 11:17:34;;;;;;;;;21.50;19.00;;;;;14.57;40.51;101642.03;146615;600;47012;-69
2024/02/02 11:21:08;;;;;;;;;17.25;13.25;;;;;14.60;40.71;101640.44;146620;565;46020;-70
2024/02/02 11:24:25;;;;;;;;;15.00;13.25;;;;;14.50;39.95;101643.41;146614;597;47016;-68
2024/02/02 11:27:28;;;;;;;;;19.50;18.50;;;;;14.45;39.61;101626.59;146622;641;47010;-68
2024/02/02 11:30:52;;;;;;;;;16.00;13.50;;;;;14.44;40.47;101630.03;146614;591;46014;-68
2024/02/02 11:34:10;;;;;;;;;29.75;28.00;;;;;14.48;41.03;101629.38;146619;572;46020;-67
2024/02/02 11:38:00;;;;;;;;;17.00;15.75;;;;;14.45;40.84;101629.22;146620;582;45017;-69
2024/02/02 11:41:03;;;;;;;;;34.00;26.25;;;;;14.30;40.50;101624.16;146618;563;47020;-68
2024/02/02 11:43:57;;;;;;;;;38.25;32.25;;;;;14.14;40.00;101614.62;146618;643;47012;-69
2024/02/02 11:47:06;;;;;;;;;15.00;14.00;;;;;14.11;40.39;101619.69;146619;691;47010;-68
2024/02/02 11:50:17;;;;;;;;;14.00;11.25;;;;;13.98;40.40;101601.62;146617;611;46016;-68
2024/02/02 11:53:45;;;;;;;;;14.00;12.50;;;;;13.82;40.94;101595.63;146619;680;47010;-68
2024/02/02 11:56:49;;;;;;;;;22.25;18.00;;;;;13.80;41.19;101605.09;146618;609;46016;-67
2024/02/02 11:59:58;;;;;;;;;28.00;22.25;;;;;13.79;40.41;101600.66;146615;577;46010;-69
2024/02/02 12:03:25;;;;;;;;;24.75;21.00;;;;;13.04;41.38;101444.72;146611;569;46012;-69
2024/02/02 12:06:26;;;;;;;;;17.25;15.50;;;;;14.00;40.01;101585.25;146613;600;46012;-67
2024/02/02 12:09:43;;;;;;;;;18.75;15.00;;;;;14.14;41.68;101577.22;146609;756;47026;-68
2024/02/02 12:12:45;;;;;;;;;29.50;25.25;;;;;14.24;40.98;101554.28;146611;708;47020;-68
2024/02/02 12:15:47;;;;;;;;;20.50;17.50;;;;;14.37;39.46;101537.53;146606;606;47916;-68
2024/02/02 12:18:40;;;;;;;;;21.50;18.50;;;;;14.43;39.24;101524.78;146612;590;47012;-69
2024/02/02 12:21:37;;;;;;;;;28.25;22.00;;;;;14.49;39.19;101519.84;146608;579;46017;-68
2024/02/02 12:24:36;;;;;;;;;33.50;30.75;;;;;14.59;41.42;101525.56;146614;566;46020;-69
2024/02/02 12:27:29;;;;;;;;;46.00;32.00;;;;;14.54;42.19;101525.31;146609;615;47015;-67
2024/02/02 12:30:27;;;;;;;;;33.75;30.50;;;;;14.39;43.37;101528.06;146614;583;47010;-68
2024/02/02 12:33:26;;;;;;;;;30.75;27.25;;;;;14.21;42.97;101533.28;146610;640;46016;-69
2024/02/02 12:36:23;;;;;;;;;31.50;27.75;;;;;14.12;43.23;101531.94;146614;639;46020;-68
2024/02/02 12:39:18;;;;;;;;;25.50;22.50;;;;;14.08;43.46;101538.69;146609;572;47012;-69
2024/02/02 12:42:18;;;;;;;;;31.00;27.75;;;;;13.98;43.55;101533.84;146614;576;46028;-68
2024/02/02 12:45:31;;;;;;;;;26.00;24.00;;;;;13.85;43.38;101533.22;146610;736;47016;-69
2024/02/02 12:48:23;;;;;;;;;31.75;27.50;;;;;13.84;43.61;101536.66;146614;593;47010;-69
2024/02/02 12:51:19;;;;;;;;;36.25;31.75;;;;;13.85;43.20;101538.41;146610;572;46916;-70
2024/02/02 12:54:18;;;;;;;;;36.00;30.75;;;;;13.85;43.50;101545.34;146611;624;47010;-68
2024/02/02 12:57:18;;;;;;;;;31.75;27.50;;;;;13.81;44.05;101552.13;146611;600;46017;-70
2024/02/02 13:00:21;;;;;;;;;32.75;29.00;;;;;13.79;43.56;101540.72;146614;602;46020;-67
2024/02/02 13:03:18;;;;;;;;;29.25;25.25;;;;;13.81;43.60;101538.19;146611;684;46014;-68
2024/02/02 13:06:19;;;;;;;;;25.25;20.50;;;;;13.83;43.30;101541.75;146616;579;46012;-69
2024/02/02 13:09:55;;;;;;;;;31.50;27.75;;;;;13.86;43.62;101541.91;146612;575;47012;-69
2024/02/02 13:12:54;;;;;;;;;26.75;24.00;;;;;13.98;43.81;101550.38;146612;587;47012;-68
2024/02/02 13:15:46;;;;;;;;;23.00;22.00;;;;;14.06;42.86;101546.44;146608;573;47012;-69
2024/02/02 13:18:47;;;;;;;;;22.50;20.00;;;;;14.06;43.37;101550.75;146612;612;46020;-68
2024/02/02 13:22:08;;;;;;;;;21.00;20.75;;;;;14.04;43.51;101544.56;146611;574;46014;-68
2024/02/02 13:25:09;;;;;;;;;28.00;22.75;;;;;14.08;44.05;101539.59;146612;604;46020;-69
2024/02/02 13:28:04;;;;;;;;;30.50;24.50;;;;;14.26;42.68;101538.69;146609;575;47014;-67
2024/02/02 13:31:06;;;;;;;;;24.50;22.25;;;;;14.32;42.63;101541.63;146614;569;47020;-70
2024/02/02 13:34:06;;;;;;;;;29.50;24.75;;;;;14.30;43.17;101538.06;146610;642;46016;-69
2024/02/02 13:40:48;;;;;;;;;21.25;20.25;;;;;14.10;44.34;101553.59;146608;569;46016;-69
2024/02/02 13:43:49;;;;;;;;;21.25;19.00;;;;;13.89;44.02;101559.44;146614;573;46010;-68
2024/02/02 13:47:20;;;;;;;;;21.50;20.50;;;;;13.28;44.50;101485.09;146609;579;46016;-68
2024/02/02 13:50:30;;;;;;;;;23.75;22.00;;;;;13.67;44.76;101573.97;146615;717;46020;-70
2024/02/02 13:53:40;;;;;;;;;28.00;23.25;;;;;13.72;44.83;101563.78;146609;557;46035;-69
2024/02/02 13:56:45;;;;;;;;;33.25;28.50;;;;;13.69;44.34;101569.75;146615;605;46021;-69
2024/02/02 13:59:41;;;;;;;;;26.25;24.50;;;;;13.69;45.25;101569.75;146608;579;46012;-69
2024/02/02 14:02:35;;;;;;;;;25.00;22.25;;;;;13.69;43.55;101572.34;146614;580;47020;-69
2024/02/02 14:05:34;;;;;;;;;31.75;29.75;;;;;13.70;45.06;101568.91;146610;594;46017;-69
2024/02/02 14:08:45;;;;;;;;;35.25;30.75;;;;;13.76;44.65;101577.06;146614;633;46020;-70
2024/02/02 14:11:42;;;;;;;;;28.50;26.50;;;;;13.82;44.67;101577.38;146609;600;47017;-68
2024/02/02 14:14:34;;;;;;;;;38.00;32.00;;;;;13.82;44.89;101581.69;146612;624;46010;-68
2024/02/02 14:17:34;;;;;;;;;34.25;27.50;;;;;13.82;45.34;101589.50;146611;572;46012;-68
2024/02/02 14:20:31;;;;;;;;;50.50;41.25;;;;;13.80;44.69;101575.50;146615;607;46021;-69
2024/02/02 14:23:31;;;;;;;;;61.75;48.00;;;;;13.77;44.27;101572.72;146612;588;46016;-68